sensor_id;sensor_type;location;lat;lon;timestamp;P1;durP1;ratioP1;P2;durP2;ratioP2
16922;SDS011;8578;50.938;13.556;2023-05-10T00:00:00;4.57;;;2.00;;
16922;SDS011;8578;50.938;13.556;2023-05-10T00:02:38;3.20;;;2.07;;
16922;SDS011;8578;50.938;13.556;2023-05-10T00:05:06;3.53;;;2.40;;
16922;SDS011;8578;50.938;13.556;2023-05-10T00:07:34;3.17;;;2.30;;
16922;SDS011;8578;50.938;13.556;2023-05-10T00:10:01;3.13;;;1.90;;
16922;SDS011;8578;50.938;13.556;2023-05-10T00:12:30;6.53;;;2.63;;
16922;SDS011;8578;50.938;13.556;2023-05-10T00:14:57;4.57;;;1.93;;
16922;SDS011;8578;50.938;13.556;2023-05-10T00:17:25;4.90;;;2.20;;
16922;SDS011;8578;50.938;13.556;2023-05-10T00:19:52;3.63;;;2.20;;
16922;SDS011;8578;50.938;13.556;2023-05-10T00:22:20;2.90;;;2.20;;
16922;SDS011;8578;50.938;13.556;2023-05-10T00:24:48;4.50;;;2.33;;
16922;SDS011;8578;50.938;13.556;2023-05-10T00:27:15;3.47;;;2.17;;
16922;SDS011;8578;50.938;13.556;2023-05-10T00:29:44;2.93;;;2.37;;
16922;SDS011;8578;50.938;13.556;2023-05-10T00:32:11;3.73;;;2.03;;
16922;SDS011;8578;50.938;13.556;2023-05-10T00:34:40;4.07;;;2.10;;
16922;SDS011;8578;50.938;13.556;2023-05-10T00:37:07;2.97;;;2.13;;
16922;SDS011;8578;50.938;13.556;2023-05-10T00:39:35;4.70;;;2.60;;
16922;SDS011;8578;50.938;13.556;2023-05-10T00:42:02;2.70;;;1.93;;
16922;SDS011;8578;50.938;13.556;2023-05-10T00:44:30;2.73;;;2.03;;
16922;SDS011;8578;50.938;13.556;2023-05-10T00:46:59;2.70;;;2.00;;
16922;SDS011;8578;50.938;13.556;2023-05-10T00:49:27;3.77;;;2.20;;
16922;SDS011;8578;50.938;13.556;2023-05-10T00:51:55;3.47;;;2.40;;
16922;SDS011;8578;50.938;13.556;2023-05-10T00:54:22;3.13;;;2.10;;
16922;SDS011;8578;50.938;13.556;2023-05-10T00:56:50;3.67;;;2.10;;
16922;SDS011;8578;50.938;13.556;2023-05-10T00:59:18;2.40;;;1.77;;
16922;SDS011;8578;50.938;13.556;2023-05-10T01:01:45;5.67;;;2.50;;
16922;SDS011;8578;50.938;13.556;2023-05-10T01:04:14;4.17;;;2.40;;
16922;SDS011;8578;50.938;13.556;2023-05-10T01:06:42;4.57;;;2.07;;
16922;SDS011;8578;50.938;13.556;2023-05-10T01:09:10;3.07;;;1.97;;
16922;SDS011;8578;50.938;13.556;2023-05-10T01:11:38;3.47;;;1.97;;
16922;SDS011;8578;50.938;13.556;2023-05-10T01:14:05;4.87;;;2.23;;
16922;SDS011;8578;50.938;13.556;2023-05-10T01:16:34;2.40;;;2.00;;
16922;SDS011;8578;50.938;13.556;2023-05-10T01:19:03;3.67;;;2.30;;
16922;SDS011;8578;50.938;13.556;2023-05-10T01:21:36;3.17;;;2.27;;
16922;SDS011;8578;50.938;13.556;2023-05-10T01:24:09;4.43;;;2.10;;
16922;SDS011;8578;50.938;13.556;2023-05-10T01:29:35;3.83;;;2.10;;
16922;SDS011;8578;50.938;13.556;2023-05-10T01:32:25;4.27;;;2.10;;
16922;SDS011;8578;50.938;13.556;2023-05-10T01:34:57;4.03;;;2.40;;
16922;SDS011;8578;50.938;13.556;2023-05-10T01:37:28;2.33;;;2.00;;
16922;SDS011;8578;50.938;13.556;2023-05-10T01:40:00;2.60;;;2.03;;
16922;SDS011;8578;50.938;13.556;2023-05-10T01:42:29;4.40;;;2.00;;
16922;SDS011;8578;50.938;13.556;2023-05-10T01:45:01;3.87;;;2.50;;
16922;SDS011;8578;50.938;13.556;2023-05-10T01:47:33;7.93;;;2.10;;
16922;SDS011;8578;50.938;13.556;2023-05-10T01:50:03;3.33;;;2.30;;
16922;SDS011;8578;50.938;13.556;2023-05-10T01:52:32;3.87;;;2.03;;
16922;SDS011;8578;50.938;13.556;2023-05-10T01:55:01;6.23;;;2.13;;
16922;SDS011;8578;50.938;13.556;2023-05-10T01:57:31;2.87;;;2.10;;
16922;SDS011;8578;50.938;13.556;2023-05-10T02:00:00;2.20;;;1.80;;
16922;SDS011;8578;50.938;13.556;2023-05-10T02:02:44;2.87;;;1.97;;
16922;SDS011;8578;50.938;13.556;2023-05-10T02:05:12;3.83;;;2.20;;
16922;SDS011;8578;50.938;13.556;2023-05-10T02:07:41;2.90;;;2.03;;
16922;SDS011;8578;50.938;13.556;2023-05-10T02:10:09;3.13;;;2.10;;
16922;SDS011;8578;50.938;13.556;2023-05-10T02:12:37;4.60;;;2.67;;
16922;SDS011;8578;50.938;13.556;2023-05-10T02:15:07;3.33;;;1.90;;
16922;SDS011;8578;50.938;13.556;2023-05-10T02:17:35;3.87;;;2.07;;
16922;SDS011;8578;50.938;13.556;2023-05-10T02:20:06;2.80;;;2.00;;
16922;SDS011;8578;50.938;13.556;2023-05-10T02:22:34;2.40;;;1.90;;
16922;SDS011;8578;50.938;13.556;2023-05-10T02:25:02;2.90;;;1.80;;
16922;SDS011;8578;50.938;13.556;2023-05-10T02:27:30;2.83;;;2.07;;
16922;SDS011;8578;50.938;13.556;2023-05-10T02:29:58;4.23;;;2.00;;
16922;SDS011;8578;50.938;13.556;2023-05-10T02:32:26;4.10;;;1.90;;
16922;SDS011;8578;50.938;13.556;2023-05-10T02:34:55;2.87;;;1.80;;
16922;SDS011;8578;50.938;13.556;2023-05-10T02:37:24;3.77;;;2.07;;
16922;SDS011;8578;50.938;13.556;2023-05-10T02:39:53;2.47;;;2.00;;
16922;SDS011;8578;50.938;13.556;2023-05-10T02:42:23;4.03;;;2.30;;
16922;SDS011;8578;50.938;13.556;2023-05-10T02:44:52;3.47;;;2.20;;
16922;SDS011;8578;50.938;13.556;2023-05-10T02:47:20;3.63;;;1.90;;
16922;SDS011;8578;50.938;13.556;2023-05-10T02:49:47;3.47;;;2.20;;
16922;SDS011;8578;50.938;13.556;2023-05-10T02:52:16;3.23;;;1.97;;
16922;SDS011;8578;50.938;13.556;2023-05-10T02:54:48;3.97;;;1.60;;
16922;SDS011;8578;50.938;13.556;2023-05-10T02:57:17;3.90;;;1.87;;
16922;SDS011;8578;50.938;13.556;2023-05-10T02:59:47;6.00;;;2.63;;
16922;SDS011;8578;50.938;13.556;2023-05-10T03:02:14;2.97;;;2.33;;
16922;SDS011;8578;50.938;13.556;2023-05-10T03:04:42;3.33;;;2.10;;
16922;SDS011;8578;50.938;13.556;2023-05-10T03:07:09;3.07;;;2.40;;
16922;SDS011;8578;50.938;13.556;2023-05-10T03:09:37;4.20;;;1.90;;
16922;SDS011;8578;50.938;13.556;2023-05-10T03:12:07;4.87;;;2.20;;
16922;SDS011;8578;50.938;13.556;2023-05-10T03:14:39;3.77;;;2.07;;
16922;SDS011;8578;50.938;13.556;2023-05-10T03:17:10;3.33;;;2.07;;
16922;SDS011;8578;50.938;13.556;2023-05-10T03:19:39;2.10;;;1.87;;
16922;SDS011;8578;50.938;13.556;2023-05-10T03:22:10;2.93;;;2.00;;
16922;SDS011;8578;50.938;13.556;2023-05-10T03:24:40;3.60;;;2.43;;
16922;SDS011;8578;50.938;13.556;2023-05-10T03:27:10;2.70;;;2.00;;
16922;SDS011;8578;50.938;13.556;2023-05-10T03:29:37;3.20;;;2.33;;
16922;SDS011;8578;50.938;13.556;2023-05-10T03:32:05;2.20;;;2.00;;
16922;SDS011;8578;50.938;13.556;2023-05-10T03:34:33;11.13;;;6.07;;
16922;SDS011;8578;50.938;13.556;2023-05-10T03:37:01;7.47;;;4.50;;
16922;SDS011;8578;50.938;13.556;2023-05-10T03:39:30;5.07;;;3.10;;
16922;SDS011;8578;50.938;13.556;2023-05-10T03:41:59;3.90;;;2.60;;
16922;SDS011;8578;50.938;13.556;2023-05-10T03:44:31;2.73;;;2.30;;
16922;SDS011;8578;50.938;13.556;2023-05-10T03:46:59;5.80;;;2.27;;
16922;SDS011;8578;50.938;13.556;2023-05-10T03:49:27;3.63;;;2.50;;
16922;SDS011;8578;50.938;13.556;2023-05-10T03:51:54;3.87;;;2.50;;
16922;SDS011;8578;50.938;13.556;2023-05-10T03:54:21;4.80;;;2.20;;
16922;SDS011;8578;50.938;13.556;2023-05-10T03:56:49;5.33;;;2.17;;
16922;SDS011;8578;50.938;13.556;2023-05-10T03:59:18;4.43;;;2.07;;
16922;SDS011;8578;50.938;13.556;2023-05-10T04:01:47;2.43;;;1.80;;
16922;SDS011;8578;50.938;13.556;2023-05-10T04:04:15;4.67;;;2.13;;
16922;SDS011;8578;50.938;13.556;2023-05-10T04:06:47;3.67;;;2.70;;
16922;SDS011;8578;50.938;13.556;2023-05-10T04:09:14;3.43;;;2.33;;
16922;SDS011;8578;50.938;13.556;2023-05-10T04:11:42;3.40;;;2.50;;
16922;SDS011;8578;50.938;13.556;2023-05-10T04:14:10;4.37;;;2.60;;
16922;SDS011;8578;50.938;13.556;2023-05-10T04:16:37;2.57;;;1.93;;
16922;SDS011;8578;50.938;13.556;2023-05-10T04:19:06;2.83;;;2.00;;
16922;SDS011;8578;50.938;13.556;2023-05-10T04:21:33;11.30;;;5.90;;
16922;SDS011;8578;50.938;13.556;2023-05-10T04:24:01;19.63;;;8.73;;
16922;SDS011;8578;50.938;13.556;2023-05-10T04:26:29;52.80;;;18.83;;
16922;SDS011;8578;50.938;13.556;2023-05-10T04:28:56;41.97;;;16.27;;
16922;SDS011;8578;50.938;13.556;2023-05-10T04:31:23;25.63;;;10.17;;
16922;SDS011;8578;50.938;13.556;2023-05-10T04:33:52;39.90;;;17.30;;
16922;SDS011;8578;50.938;13.556;2023-05-10T04:36:20;7.07;;;4.23;;
16922;SDS011;8578;50.938;13.556;2023-05-10T04:38:48;4.87;;;3.63;;
16922;SDS011;8578;50.938;13.556;2023-05-10T04:41:16;6.83;;;2.90;;
16922;SDS011;8578;50.938;13.556;2023-05-10T04:43:43;4.57;;;3.10;;
16922;SDS011;8578;50.938;13.556;2023-05-10T04:46:12;4.30;;;2.60;;
16922;SDS011;8578;50.938;13.556;2023-05-10T04:48:39;6.90;;;5.37;;
16922;SDS011;8578;50.938;13.556;2023-05-10T04:51:07;6.27;;;4.50;;
16922;SDS011;8578;50.938;13.556;2023-05-10T04:53:36;6.37;;;4.30;;
16922;SDS011;8578;50.938;13.556;2023-05-10T04:56:04;5.97;;;5.00;;
16922;SDS011;8578;50.938;13.556;2023-05-10T04:58:31;4.90;;;3.97;;
16922;SDS011;8578;50.938;13.556;2023-05-10T05:01:04;5.23;;;3.67;;
16922;SDS011;8578;50.938;13.556;2023-05-10T05:03:32;3.00;;;2.53;;
16922;SDS011;8578;50.938;13.556;2023-05-10T05:06:00;6.43;;;3.73;;
16922;SDS011;8578;50.938;13.556;2023-05-10T05:08:27;4.90;;;2.80;;
16922;SDS011;8578;50.938;13.556;2023-05-10T05:10:57;6.07;;;2.33;;
16922;SDS011;8578;50.938;13.556;2023-05-10T05:13:25;4.20;;;2.60;;
16922;SDS011;8578;50.938;13.556;2023-05-10T05:15:52;3.07;;;2.43;;
16922;SDS011;8578;50.938;13.556;2023-05-10T05:18:20;4.57;;;2.87;;
16922;SDS011;8578;50.938;13.556;2023-05-10T05:20:48;6.37;;;3.27;;
16922;SDS011;8578;50.938;13.556;2023-05-10T05:23:15;8.27;;;3.60;;
16922;SDS011;8578;50.938;13.556;2023-05-10T05:25:44;7.60;;;3.47;;
16922;SDS011;8578;50.938;13.556;2023-05-10T05:28:13;10.53;;;4.13;;
16922;SDS011;8578;50.938;13.556;2023-05-10T05:30:40;10.60;;;4.90;;
16922;SDS011;8578;50.938;13.556;2023-05-10T05:33:08;11.77;;;5.37;;
16922;SDS011;8578;50.938;13.556;2023-05-10T05:35:35;13.10;;;6.57;;
16922;SDS011;8578;50.938;13.556;2023-05-10T05:38:02;13.10;;;5.30;;
16922;SDS011;8578;50.938;13.556;2023-05-10T05:40:30;8.10;;;4.40;;
16922;SDS011;8578;50.938;13.556;2023-05-10T05:42:57;10.07;;;3.90;;
16922;SDS011;8578;50.938;13.556;2023-05-10T05:45:26;5.63;;;3.13;;
16922;SDS011;8578;50.938;13.556;2023-05-10T05:47:54;6.13;;;3.10;;
16922;SDS011;8578;50.938;13.556;2023-05-10T05:50:22;3.23;;;2.20;;
16922;SDS011;8578;50.938;13.556;2023-05-10T05:52:49;3.83;;;2.00;;
16922;SDS011;8578;50.938;13.556;2023-05-10T05:55:17;2.53;;;1.67;;
16922;SDS011;8578;50.938;13.556;2023-05-10T05:57:45;4.67;;;2.03;;
16922;SDS011;8578;50.938;13.556;2023-05-10T06:00:12;4.37;;;2.33;;
16922;SDS011;8578;50.938;13.556;2023-05-10T06:02:41;6.93;;;3.37;;
16922;SDS011;8578;50.938;13.556;2023-05-10T06:05:09;3.73;;;2.33;;
16922;SDS011;8578;50.938;13.556;2023-05-10T06:07:36;4.77;;;2.87;;
16922;SDS011;8578;50.938;13.556;2023-05-10T06:10:04;3.10;;;2.00;;
16922;SDS011;8578;50.938;13.556;2023-05-10T06:12:31;2.30;;;1.60;;
16922;SDS011;8578;50.938;13.556;2023-05-10T06:14:59;3.60;;;1.80;;
16922;SDS011;8578;50.938;13.556;2023-05-10T06:17:27;3.53;;;1.90;;
16922;SDS011;8578;50.938;13.556;2023-05-10T06:19:56;2.90;;;1.97;;
16922;SDS011;8578;50.938;13.556;2023-05-10T06:22:23;2.30;;;1.50;;
16922;SDS011;8578;50.938;13.556;2023-05-10T06:24:51;4.07;;;1.73;;
16922;SDS011;8578;50.938;13.556;2023-05-10T06:27:18;4.20;;;1.77;;
16922;SDS011;8578;50.938;13.556;2023-05-10T06:29:45;2.00;;;1.50;;
16922;SDS011;8578;50.938;13.556;2023-05-10T06:32:15;5.03;;;2.20;;
16922;SDS011;8578;50.938;13.556;2023-05-10T06:34:43;5.10;;;2.10;;
16922;SDS011;8578;50.938;13.556;2023-05-10T06:37:12;4.60;;;1.80;;
16922;SDS011;8578;50.938;13.556;2023-05-10T06:39:39;2.57;;;1.80;;
16922;SDS011;8578;50.938;13.556;2023-05-10T06:42:06;2.80;;;2.00;;
16922;SDS011;8578;50.938;13.556;2023-05-10T06:44:34;3.03;;;2.20;;
16922;SDS011;8578;50.938;13.556;2023-05-10T06:47:02;5.47;;;2.00;;
16922;SDS011;8578;50.938;13.556;2023-05-10T06:49:29;3.83;;;2.30;;
16922;SDS011;8578;50.938;13.556;2023-05-10T06:51:56;4.73;;;2.60;;
16922;SDS011;8578;50.938;13.556;2023-05-10T06:54:25;5.00;;;2.60;;
16922;SDS011;8578;50.938;13.556;2023-05-10T06:56:52;5.30;;;2.43;;
16922;SDS011;8578;50.938;13.556;2023-05-10T06:59:20;5.67;;;3.03;;
16922;SDS011;8578;50.938;13.556;2023-05-10T07:01:47;9.40;;;3.83;;
16922;SDS011;8578;50.938;13.556;2023-05-10T07:04:15;4.77;;;2.50;;
16922;SDS011;8578;50.938;13.556;2023-05-10T07:06:43;5.53;;;2.60;;
16922;SDS011;8578;50.938;13.556;2023-05-10T07:09:12;4.90;;;2.10;;
16922;SDS011;8578;50.938;13.556;2023-05-10T07:11:41;5.07;;;2.57;;
16922;SDS011;8578;50.938;13.556;2023-05-10T07:14:09;5.73;;;2.30;;
16922;SDS011;8578;50.938;13.556;2023-05-10T07:16:36;4.10;;;2.50;;
16922;SDS011;8578;50.938;13.556;2023-05-10T07:19:04;3.10;;;2.00;;
16922;SDS011;8578;50.938;13.556;2023-05-10T07:21:33;5.13;;;1.87;;
16922;SDS011;8578;50.938;13.556;2023-05-10T07:24:01;2.43;;;1.70;;
16922;SDS011;8578;50.938;13.556;2023-05-10T07:26:29;3.03;;;1.90;;
16922;SDS011;8578;50.938;13.556;2023-05-10T07:28:57;3.20;;;2.10;;
16922;SDS011;8578;50.938;13.556;2023-05-10T07:31:25;2.80;;;2.13;;
16922;SDS011;8578;50.938;13.556;2023-05-10T07:33:52;2.60;;;1.80;;
16922;SDS011;8578;50.938;13.556;2023-05-10T07:36:20;2.30;;;1.60;;
16922;SDS011;8578;50.938;13.556;2023-05-10T07:38:47;3.53;;;1.73;;
16922;SDS011;8578;50.938;13.556;2023-05-10T07:41:15;2.03;;;1.63;;
16922;SDS011;8578;50.938;13.556;2023-05-10T07:43:42;3.63;;;1.80;;
16922;SDS011;8578;50.938;13.556;2023-05-10T07:46:11;3.00;;;2.10;;
16922;SDS011;8578;50.938;13.556;2023-05-10T07:48:39;2.17;;;1.77;;
16922;SDS011;8578;50.938;13.556;2023-05-10T07:51:06;3.33;;;2.00;;
16922;SDS011;8578;50.938;13.556;2023-05-10T07:53:35;2.97;;;1.80;;
16922;SDS011;8578;50.938;13.556;2023-05-10T07:58:45;2.63;;;1.70;;
16922;SDS011;8578;50.938;13.556;2023-05-10T08:01:13;3.47;;;1.63;;
16922;SDS011;8578;50.938;13.556;2023-05-10T08:03:41;4.43;;;2.17;;
16922;SDS011;8578;50.938;13.556;2023-05-10T08:06:08;3.50;;;2.20;;
16922;SDS011;8578;50.938;13.556;2023-05-10T08:08:36;3.73;;;1.90;;
16922;SDS011;8578;50.938;13.556;2023-05-10T08:11:04;4.53;;;2.20;;
16922;SDS011;8578;50.938;13.556;2023-05-10T08:13:32;1.87;;;1.60;;
16922;SDS011;8578;50.938;13.556;2023-05-10T08:16:00;5.37;;;2.20;;
16922;SDS011;8578;50.938;13.556;2023-05-10T08:18:29;3.73;;;2.07;;
16922;SDS011;8578;50.938;13.556;2023-05-10T08:20:56;3.70;;;1.97;;
16922;SDS011;8578;50.938;13.556;2023-05-10T08:23:24;4.83;;;1.90;;
16922;SDS011;8578;50.938;13.556;2023-05-10T08:25:52;2.30;;;1.83;;
16922;SDS011;8578;50.938;13.556;2023-05-10T08:28:19;4.73;;;2.10;;
16922;SDS011;8578;50.938;13.556;2023-05-10T08:30:47;2.70;;;2.03;;
16922;SDS011;8578;50.938;13.556;2023-05-10T08:33:14;3.03;;;1.97;;
16922;SDS011;8578;50.938;13.556;2023-05-10T08:35:43;3.27;;;1.93;;
16922;SDS011;8578;50.938;13.556;2023-05-10T08:38:10;2.17;;;1.70;;
16922;SDS011;8578;50.938;13.556;2023-05-10T08:40:39;2.87;;;2.20;;
16922;SDS011;8578;50.938;13.556;2023-05-10T08:43:08;3.13;;;1.57;;
16922;SDS011;8578;50.938;13.556;2023-05-10T08:45:36;3.40;;;1.77;;
16922;SDS011;8578;50.938;13.556;2023-05-10T08:48:04;3.77;;;2.00;;
16922;SDS011;8578;50.938;13.556;2023-05-10T08:50:34;2.90;;;1.90;;
16922;SDS011;8578;50.938;13.556;2023-05-10T08:53:05;2.30;;;2.00;;
16922;SDS011;8578;50.938;13.556;2023-05-10T08:55:33;2.40;;;2.17;;
16922;SDS011;8578;50.938;13.556;2023-05-10T08:58:02;3.30;;;2.20;;
16922;SDS011;8578;50.938;13.556;2023-05-10T09:00:30;4.33;;;2.23;;
16922;SDS011;8578;50.938;13.556;2023-05-10T09:02:58;2.43;;;1.97;;
16922;SDS011;8578;50.938;13.556;2023-05-10T09:05:26;3.57;;;2.03;;
16922;SDS011;8578;50.938;13.556;2023-05-10T09:07:53;2.33;;;1.90;;
16922;SDS011;8578;50.938;13.556;2023-05-10T09:10:22;3.70;;;2.10;;
16922;SDS011;8578;50.938;13.556;2023-05-10T09:12:52;3.27;;;1.93;;
16922;SDS011;8578;50.938;13.556;2023-05-10T09:15:22;5.07;;;2.00;;
16922;SDS011;8578;50.938;13.556;2023-05-10T09:17:49;4.67;;;1.93;;
16922;SDS011;8578;50.938;13.556;2023-05-10T09:20:17;3.93;;;1.87;;
16922;SDS011;8578;50.938;13.556;2023-05-10T09:22:44;2.53;;;1.90;;
16922;SDS011;8578;50.938;13.556;2023-05-10T09:25:12;7.83;;;2.20;;
16922;SDS011;8578;50.938;13.556;2023-05-10T09:27:43;3.90;;;2.07;;
16922;SDS011;8578;50.938;13.556;2023-05-10T09:30:14;4.07;;;2.30;;
16922;SDS011;8578;50.938;13.556;2023-05-10T09:32:43;3.07;;;1.90;;
16922;SDS011;8578;50.938;13.556;2023-05-10T09:35:11;3.63;;;2.27;;
16922;SDS011;8578;50.938;13.556;2023-05-10T09:37:40;2.77;;;2.20;;
16922;SDS011;8578;50.938;13.556;2023-05-10T09:40:11;2.50;;;2.10;;
16922;SDS011;8578;50.938;13.556;2023-05-10T09:42:39;4.10;;;2.07;;
16922;SDS011;8578;50.938;13.556;2023-05-10T09:45:09;4.20;;;2.20;;
16922;SDS011;8578;50.938;13.556;2023-05-10T09:47:36;3.60;;;2.37;;
16922;SDS011;8578;50.938;13.556;2023-05-10T09:50:04;2.90;;;2.00;;
16922;SDS011;8578;50.938;13.556;2023-05-10T09:52:45;3.67;;;2.20;;
16922;SDS011;8578;50.938;13.556;2023-05-10T09:55:13;3.57;;;2.17;;
16922;SDS011;8578;50.938;13.556;2023-05-10T09:57:40;7.23;;;2.70;;
16922;SDS011;8578;50.938;13.556;2023-05-10T10:00:09;4.47;;;2.33;;
16922;SDS011;8578;50.938;13.556;2023-05-10T10:02:40;3.13;;;2.00;;
16922;SDS011;8578;50.938;13.556;2023-05-10T10:05:08;2.27;;;1.93;;
16922;SDS011;8578;50.938;13.556;2023-05-10T10:07:35;4.90;;;2.13;;
16922;SDS011;8578;50.938;13.556;2023-05-10T10:10:03;2.30;;;1.90;;
16922;SDS011;8578;50.938;13.556;2023-05-10T10:12:31;3.07;;;2.10;;
16922;SDS011;8578;50.938;13.556;2023-05-10T10:14:59;3.40;;;2.37;;
16922;SDS011;8578;50.938;13.556;2023-05-10T10:17:28;3.57;;;2.13;;
16922;SDS011;8578;50.938;13.556;2023-05-10T10:19:57;5.63;;;2.60;;
16922;SDS011;8578;50.938;13.556;2023-05-10T10:22:25;4.13;;;2.63;;
16922;SDS011;8578;50.938;13.556;2023-05-10T10:24:52;6.77;;;2.40;;
16922;SDS011;8578;50.938;13.556;2023-05-10T10:27:23;3.50;;;2.67;;
16922;SDS011;8578;50.938;13.556;2023-05-10T10:30:02;5.03;;;2.60;;
16922;SDS011;8578;50.938;13.556;2023-05-10T10:32:38;4.10;;;2.57;;
16922;SDS011;8578;50.938;13.556;2023-05-10T10:35:09;3.43;;;2.50;;
16922;SDS011;8578;50.938;13.556;2023-05-10T10:37:43;3.10;;;2.40;;
16922;SDS011;8578;50.938;13.556;2023-05-10T10:42:55;5.23;;;2.40;;
16922;SDS011;8578;50.938;13.556;2023-05-10T10:45:23;3.60;;;2.47;;
16922;SDS011;8578;50.938;13.556;2023-05-10T10:50:44;4.03;;;2.63;;
16922;SDS011;8578;50.938;13.556;2023-05-10T10:53:12;3.40;;;2.67;;
16922;SDS011;8578;50.938;13.556;2023-05-10T10:55:45;4.43;;;2.73;;
16922;SDS011;8578;50.938;13.556;2023-05-10T10:58:18;3.33;;;2.60;;
16922;SDS011;8578;50.938;13.556;2023-05-10T11:01:08;4.17;;;2.83;;
16922;SDS011;8578;50.938;13.556;2023-05-10T11:03:36;4.23;;;2.50;;
16922;SDS011;8578;50.938;13.556;2023-05-10T11:06:05;4.87;;;2.80;;
16922;SDS011;8578;50.938;13.556;2023-05-10T11:08:32;4.80;;;2.73;;
16922;SDS011;8578;50.938;13.556;2023-05-10T11:11:04;4.30;;;2.63;;
16922;SDS011;8578;50.938;13.556;2023-05-10T11:13:34;3.07;;;2.50;;
16922;SDS011;8578;50.938;13.556;2023-05-10T11:16:15;5.27;;;2.47;;
16922;SDS011;8578;50.938;13.556;2023-05-10T11:18:58;4.87;;;2.67;;
16922;SDS011;8578;50.938;13.556;2023-05-10T11:21:29;3.33;;;2.87;;
16922;SDS011;8578;50.938;13.556;2023-05-10T11:23:57;7.63;;;2.70;;
16922;SDS011;8578;50.938;13.556;2023-05-10T11:26:25;5.73;;;2.70;;
16922;SDS011;8578;50.938;13.556;2023-05-10T11:28:53;3.90;;;2.27;;
16922;SDS011;8578;50.938;13.556;2023-05-10T11:31:22;4.40;;;2.73;;
16922;SDS011;8578;50.938;13.556;2023-05-10T11:33:53;6.00;;;2.97;;
16922;SDS011;8578;50.938;13.556;2023-05-10T11:36:21;6.03;;;2.70;;
16922;SDS011;8578;50.938;13.556;2023-05-10T11:38:50;4.03;;;2.80;;
16922;SDS011;8578;50.938;13.556;2023-05-10T11:41:18;4.73;;;2.90;;
16922;SDS011;8578;50.938;13.556;2023-05-10T11:43:49;3.33;;;2.67;;
16922;SDS011;8578;50.938;13.556;2023-05-10T11:46:18;4.10;;;2.70;;
16922;SDS011;8578;50.938;13.556;2023-05-10T11:48:47;3.87;;;3.00;;
16922;SDS011;8578;50.938;13.556;2023-05-10T11:51:14;3.43;;;2.40;;
16922;SDS011;8578;50.938;13.556;2023-05-10T11:53:41;5.30;;;2.47;;
16922;SDS011;8578;50.938;13.556;2023-05-10T11:56:10;3.83;;;3.13;;
16922;SDS011;8578;50.938;13.556;2023-05-10T11:58:38;3.13;;;2.63;;
16922;SDS011;8578;50.938;13.556;2023-05-10T12:01:06;6.23;;;2.87;;
16922;SDS011;8578;50.938;13.556;2023-05-10T12:03:35;4.87;;;2.63;;
16922;SDS011;8578;50.938;13.556;2023-05-10T12:06:03;2.97;;;2.67;;
16922;SDS011;8578;50.938;13.556;2023-05-10T12:08:30;3.37;;;2.47;;
16922;SDS011;8578;50.938;13.556;2023-05-10T12:11:04;4.73;;;2.70;;
16922;SDS011;8578;50.938;13.556;2023-05-10T12:13:36;3.70;;;2.77;;
16922;SDS011;8578;50.938;13.556;2023-05-10T12:16:12;3.10;;;2.70;;
16922;SDS011;8578;50.938;13.556;2023-05-10T12:18:39;3.77;;;2.50;;
16922;SDS011;8578;50.938;13.556;2023-05-10T12:21:07;3.07;;;2.57;;
16922;SDS011;8578;50.938;13.556;2023-05-10T12:23:36;3.97;;;2.70;;
16922;SDS011;8578;50.938;13.556;2023-05-10T12:26:04;5.63;;;3.20;;
16922;SDS011;8578;50.938;13.556;2023-05-10T12:28:32;4.27;;;2.70;;
16922;SDS011;8578;50.938;13.556;2023-05-10T12:31:01;3.47;;;2.70;;
16922;SDS011;8578;50.938;13.556;2023-05-10T12:33:35;4.37;;;2.53;;
16922;SDS011;8578;50.938;13.556;2023-05-10T12:36:04;4.03;;;2.70;;
16922;SDS011;8578;50.938;13.556;2023-05-10T12:38:32;7.17;;;2.90;;
16922;SDS011;8578;50.938;13.556;2023-05-10T12:41:00;3.40;;;2.53;;
16922;SDS011;8578;50.938;13.556;2023-05-10T12:43:28;5.33;;;2.70;;
16922;SDS011;8578;50.938;13.556;2023-05-10T12:45:56;4.67;;;2.40;;
16922;SDS011;8578;50.938;13.556;2023-05-10T12:48:24;4.00;;;2.60;;
16922;SDS011;8578;50.938;13.556;2023-05-10T12:50:52;5.27;;;2.27;;
16922;SDS011;8578;50.938;13.556;2023-05-10T12:53:19;4.63;;;2.40;;
16922;SDS011;8578;50.938;13.556;2023-05-10T12:55:46;2.87;;;2.30;;
16922;SDS011;8578;50.938;13.556;2023-05-10T12:58:14;2.87;;;2.57;;
16922;SDS011;8578;50.938;13.556;2023-05-10T13:01:00;4.33;;;2.53;;
16922;SDS011;8578;50.938;13.556;2023-05-10T13:03:29;4.60;;;2.60;;
16922;SDS011;8578;50.938;13.556;2023-05-10T13:05:57;3.70;;;2.50;;
16922;SDS011;8578;50.938;13.556;2023-05-10T13:08:24;3.93;;;2.80;;
16922;SDS011;8578;50.938;13.556;2023-05-10T13:10:52;2.83;;;2.50;;
16922;SDS011;8578;50.938;13.556;2023-05-10T13:13:19;4.70;;;2.73;;
16922;SDS011;8578;50.938;13.556;2023-05-10T13:15:46;7.43;;;3.00;;
16922;SDS011;8578;50.938;13.556;2023-05-10T13:18:14;4.70;;;2.57;;
16922;SDS011;8578;50.938;13.556;2023-05-10T13:20:43;4.73;;;2.73;;
16922;SDS011;8578;50.938;13.556;2023-05-10T13:23:10;4.43;;;2.83;;
16922;SDS011;8578;50.938;13.556;2023-05-10T13:25:37;3.33;;;2.80;;
16922;SDS011;8578;50.938;13.556;2023-05-10T13:28:05;3.57;;;3.03;;
16922;SDS011;8578;50.938;13.556;2023-05-10T13:30:32;5.33;;;4.13;;
16922;SDS011;8578;50.938;13.556;2023-05-10T13:33:00;5.77;;;3.87;;
16922;SDS011;8578;50.938;13.556;2023-05-10T13:35:27;6.40;;;3.70;;
16922;SDS011;8578;50.938;13.556;2023-05-10T13:37:56;4.30;;;3.50;;
16922;SDS011;8578;50.938;13.556;2023-05-10T13:40:25;4.67;;;3.50;;
16922;SDS011;8578;50.938;13.556;2023-05-10T13:42:52;5.00;;;3.80;;
16922;SDS011;8578;50.938;13.556;2023-05-10T13:45:20;7.80;;;3.63;;
16922;SDS011;8578;50.938;13.556;2023-05-10T13:47:48;6.17;;;3.60;;
16922;SDS011;8578;50.938;13.556;2023-05-10T13:50:15;4.47;;;3.10;;
16922;SDS011;8578;50.938;13.556;2023-05-10T13:52:43;7.07;;;3.20;;
16922;SDS011;8578;50.938;13.556;2023-05-10T13:55:12;5.37;;;3.50;;
16922;SDS011;8578;50.938;13.556;2023-05-10T13:57:39;5.90;;;3.80;;
16922;SDS011;8578;50.938;13.556;2023-05-10T14:00:07;5.83;;;3.63;;
16922;SDS011;8578;50.938;13.556;2023-05-10T14:02:35;5.60;;;3.60;;
16922;SDS011;8578;50.938;13.556;2023-05-10T14:05:03;5.33;;;3.63;;
16922;SDS011;8578;50.938;13.556;2023-05-10T14:07:31;6.67;;;3.33;;
16922;SDS011;8578;50.938;13.556;2023-05-10T14:10:00;4.60;;;3.63;;
16922;SDS011;8578;50.938;13.556;2023-05-10T14:12:30;6.53;;;3.73;;
16922;SDS011;8578;50.938;13.556;2023-05-10T14:14:58;9.70;;;3.77;;
16922;SDS011;8578;50.938;13.556;2023-05-10T14:17:25;4.20;;;3.30;;
16922;SDS011;8578;50.938;13.556;2023-05-10T14:19:53;3.73;;;2.83;;
16922;SDS011;8578;50.938;13.556;2023-05-10T14:22:20;5.50;;;2.63;;
16922;SDS011;8578;50.938;13.556;2023-05-10T14:24:48;3.77;;;2.63;;
16922;SDS011;8578;50.938;13.556;2023-05-10T14:27:16;4.83;;;2.83;;
16922;SDS011;8578;50.938;13.556;2023-05-10T14:29:45;2.70;;;2.37;;
16922;SDS011;8578;50.938;13.556;2023-05-10T14:32:12;4.17;;;3.00;;
16922;SDS011;8578;50.938;13.556;2023-05-10T14:34:40;12.17;;;3.70;;
16922;SDS011;8578;50.938;13.556;2023-05-10T14:37:09;10.67;;;3.00;;
16922;SDS011;8578;50.938;13.556;2023-05-10T14:39:37;6.80;;;3.23;;
16922;SDS011;8578;50.938;13.556;2023-05-10T14:42:04;4.43;;;3.23;;
16922;SDS011;8578;50.938;13.556;2023-05-10T14:44:31;4.03;;;3.30;;
16922;SDS011;8578;50.938;13.556;2023-05-10T14:47:00;4.33;;;3.10;;
16922;SDS011;8578;50.938;13.556;2023-05-10T14:49:28;6.20;;;3.47;;
16922;SDS011;8578;50.938;13.556;2023-05-10T14:51:56;4.30;;;2.83;;
16922;SDS011;8578;50.938;13.556;2023-05-10T14:54:24;3.73;;;2.93;;
16922;SDS011;8578;50.938;13.556;2023-05-10T14:56:52;5.57;;;2.80;;
16922;SDS011;8578;50.938;13.556;2023-05-10T14:59:20;4.97;;;3.13;;
16922;SDS011;8578;50.938;13.556;2023-05-10T15:01:47;5.67;;;3.10;;
16922;SDS011;8578;50.938;13.556;2023-05-10T15:04:16;5.37;;;3.07;;
16922;SDS011;8578;50.938;13.556;2023-05-10T15:06:44;4.30;;;3.40;;